createdAt,value
2017-12-05T00:00:02.580Z,964.9
2017-12-05T00:01:02.561Z,964.91
2017-12-05T00:02:02.551Z,964.89
2017-12-05T00:03:02.527Z,964.89
2017-12-05T00:04:02.527Z,964.88
2017-12-05T00:05:02.495Z,964.9
2017-12-05T00:06:02.475Z,964.88
2017-12-05T00:07:02.459Z,964.87
2017-12-05T00:08:02.441Z,964.87
2017-12-05T00:09:02.423Z,964.87
2017-12-05T00:10:02.409Z,964.88
2017-12-05T00:11:02.392Z,964.89
2017-12-05T00:12:02.373Z,964.85
2017-12-05T00:13:02.354Z,964.85
2017-12-05T00:14:02.337Z,964.87
2017-12-05T00:15:02.321Z,964.87
2017-12-05T00:16:02.303Z,964.94
2017-12-05T00:17:02.285Z,964.9
2017-12-05T00:18:02.268Z,964.86
2017-12-05T00:19:02.253Z,964.89
2017-12-05T00:20:02.234Z,964.89
2017-12-05T00:21:02.216Z,964.95
2017-12-05T00:22:02.213Z,964.94
2017-12-05T00:23:02.182Z,964.93
2017-12-05T00:24:02.166Z,964.91
2017-12-05T00:25:02.147Z,964.91
2017-12-05T00:26:02.135Z,964.91
2017-12-05T00:27:02.113Z,964.88
2017-12-05T00:28:02.100Z,964.89
2017-12-05T00:29:02.079Z,964.88
2017-12-05T00:30:02.075Z,964.9
2017-12-05T00:31:02.046Z,964.91
2017-12-05T00:32:02.032Z,964.87
2017-12-05T00:33:02.009Z,964.91
2017-12-05T00:34:01.992Z,964.91
2017-12-05T00:35:01.975Z,964.89
2017-12-05T00:36:01.956Z,964.91
2017-12-05T00:37:01.940Z,964.89
2017-12-05T00:38:01.945Z,964.85
2017-12-05T00:39:01.906Z,964.87
2017-12-05T00:40:01.888Z,964.86
2017-12-05T00:41:01.874Z,964.88
2017-12-05T00:42:01.869Z,964.85
2017-12-05T00:43:01.837Z,964.83
2017-12-05T00:44:01.837Z,964.89
2017-12-05T00:45:01.802Z,964.89
2017-12-05T00:46:01.786Z,964.88
2017-12-05T00:47:01.770Z,964.93
2017-12-05T00:48:01.759Z,964.91
2017-12-05T00:49:01.732Z,964.93
2017-12-05T00:50:01.714Z,964.92
2017-12-05T00:51:01.698Z,964.9
2017-12-05T00:52:01.733Z,964.95
2017-12-05T00:53:01.663Z,964.92
2017-12-05T00:54:01.647Z,964.93
2017-12-05T00:55:01.631Z,964.96
2017-12-05T00:57:01.594Z,964.98
2017-12-05T00:58:01.576Z,965
2017-12-05T00:59:01.559Z,964.96
2017-12-05T01:00:01.545Z,965.02
2017-12-05T01:01:01.527Z,965.01
2017-12-05T01:02:01.507Z,965.03
2017-12-05T01:03:01.489Z,965.08
2017-12-05T01:04:01.472Z,965.1
2017-12-05T01:05:01.454Z,965.06
2017-12-05T01:06:01.439Z,965.17
2017-12-05T01:07:01.422Z,965.11
2017-12-05T01:08:01.403Z,965.11
2017-12-05T01:09:01.386Z,965.11
2017-12-05T01:10:01.394Z,965.16
2017-12-05T01:11:01.357Z,965.15
2017-12-05T01:12:01.339Z,965.14
2017-12-05T01:13:01.316Z,965.16
2017-12-05T01:14:01.301Z,965.19
2017-12-05T01:15:01.283Z,965.19
2017-12-05T01:16:01.264Z,965.18
2017-12-05T01:17:01.248Z,965.17
2017-12-05T01:18:01.230Z,965.15
2017-12-05T01:19:01.212Z,965.11
2017-12-05T01:20:01.195Z,965.16
2017-12-05T01:21:01.177Z,965.12
2017-12-05T01:22:01.161Z,965.12
2017-12-05T01:23:01.142Z,965.12
2017-12-05T01:24:01.126Z,965.12
2017-12-05T01:25:01.108Z,965.1
2017-12-05T01:26:01.092Z,965.16
2017-12-05T01:27:01.081Z,965.21
2017-12-05T01:28:01.056Z,965.17
2017-12-05T01:29:01.050Z,965.19
2017-12-05T01:30:01.022Z,965.19
2017-12-05T01:31:01.004Z,965.17
2017-12-05T01:32:00.987Z,965.25
2017-12-05T01:33:00.969Z,965.19
2017-12-05T01:34:00.954Z,965.22
2017-12-05T01:35:00.933Z,965.2
2017-12-05T01:36:00.917Z,965.2
2017-12-05T01:37:00.900Z,965.22
2017-12-05T01:38:00.881Z,965.23
2017-12-05T01:39:00.866Z,965.23
2017-12-05T01:40:00.846Z,965.23
2017-12-05T01:41:00.851Z,965.2
2017-12-05T01:42:00.812Z,965.26
2017-12-05T01:43:00.795Z,965.24
2017-12-05T01:44:00.779Z,965.21
2017-12-05T01:45:00.761Z,965.25
2017-12-05T01:46:00.744Z,965.21
2017-12-05T01:47:00.726Z,965.22
2017-12-05T01:48:00.710Z,965.22
2017-12-05T01:49:00.690Z,965.22
2017-12-05T01:50:00.676Z,965.19
2017-12-05T01:51:00.656Z,965.19
2017-12-05T01:52:00.638Z,965.23
2017-12-05T01:53:00.626Z,965.22
2017-12-05T01:54:00.604Z,965.2
2017-12-05T01:55:00.586Z,965.17
2017-12-05T01:56:00.569Z,965.21
2017-12-05T01:57:00.552Z,965.18
2017-12-05T01:58:00.535Z,965.2
2017-12-05T01:59:00.517Z,965.2
2017-12-05T02:00:00.502Z,965.22
2017-12-05T02:01:00.483Z,965.22
2017-12-05T02:02:00.464Z,965.25
2017-12-05T02:03:00.448Z,965.23
2017-12-05T02:04:00.431Z,965.24
2017-12-05T02:05:00.425Z,965.25
2017-12-05T02:06:00.397Z,965.26
2017-12-05T02:07:00.378Z,965.23
2017-12-05T02:08:00.361Z,965.26
2017-12-05T02:09:00.345Z,965.25
2017-12-05T02:10:00.326Z,965.27
2017-12-05T02:11:00.326Z,965.25
2017-12-05T02:12:00.295Z,965.25
2017-12-05T02:13:00.274Z,965.22
2017-12-05T02:14:00.256Z,965.23
2017-12-05T02:15:00.247Z,965.21
2017-12-05T02:16:00.222Z,965.26
2017-12-05T02:17:00.207Z,965.24
2017-12-05T02:18:00.186Z,965.18
2017-12-05T02:19:00.169Z,965.23
2017-12-05T02:20:00.153Z,965.2
2017-12-05T02:21:00.148Z,965.22
2017-12-05T02:22:00.117Z,965.22
2017-12-05T02:23:00.100Z,965.18
2017-12-05T02:24:00.082Z,965.25
2017-12-05T02:25:00.064Z,965.27
2017-12-05T02:26:00.049Z,965.29
2017-12-05T02:27:00.031Z,965.25
2017-12-05T02:28:00.013Z,965.25
2017-12-05T02:29:00.017Z,965.26
2017-12-05T02:29:59.978Z,965.26
2017-12-05T02:30:59.961Z,965.3
2017-12-05T02:31:59.943Z,965.34
2017-12-05T02:32:59.927Z,965.24
2017-12-05T02:33:59.910Z,965.31
2017-12-05T02:34:59.894Z,965.29
2017-12-05T02:35:59.876Z,965.27
2017-12-05T02:36:59.858Z,965.29
2017-12-05T02:37:59.838Z,965.22
2017-12-05T02:38:59.823Z,965.25
2017-12-05T02:39:59.815Z,965.25
2017-12-05T02:40:59.786Z,965.23
2017-12-05T02:41:59.769Z,965.24
2017-12-05T02:42:59.750Z,965.2
2017-12-05T02:43:59.732Z,965.22
2017-12-05T02:44:59.715Z,965.2
2017-12-05T02:45:59.718Z,965.22
2017-12-05T02:46:59.681Z,965.22
2017-12-05T02:47:59.664Z,965.24
2017-12-05T02:48:59.646Z,965.22
2017-12-05T02:49:59.629Z,965.22
2017-12-05T02:50:59.610Z,965.23
2017-12-05T02:51:59.592Z,965.23
2017-12-05T02:52:59.575Z,965.22
2017-12-05T02:53:59.557Z,965.19
2017-12-05T02:54:59.560Z,965.26
2017-12-05T02:55:59.525Z,965.24
2017-12-05T02:56:59.507Z,965.25
2017-12-05T02:57:59.490Z,965.26
2017-12-05T02:58:59.481Z,965.27
2017-12-05T02:59:59.455Z,965.29
2017-12-05T03:00:59.437Z,965.29
2017-12-05T03:01:59.438Z,965.31
2017-12-05T03:02:59.402Z,965.27
2017-12-05T03:03:59.384Z,965.31
2017-12-05T03:04:59.368Z,965.3
2017-12-05T03:05:59.349Z,965.33
2017-12-05T03:06:59.331Z,965.28
2017-12-05T03:07:59.316Z,965.35
2017-12-05T03:08:59.295Z,965.28
2017-12-05T03:09:59.278Z,965.32
2017-12-05T03:10:59.262Z,965.31
2017-12-05T03:11:59.242Z,965.25
2017-12-05T03:12:59.225Z,965.28
2017-12-05T03:13:59.207Z,965.26
2017-12-05T03:14:59.190Z,965.26
2017-12-05T03:15:59.195Z,965.27
2017-12-05T03:16:59.155Z,965.32
2017-12-05T03:17:59.137Z,965.27
2017-12-05T03:18:59.121Z,965.22
2017-12-05T03:19:59.102Z,965.24
2017-12-05T03:20:59.085Z,965.27
2017-12-05T03:21:59.068Z,965.24
2017-12-05T03:22:59.051Z,965.27
2017-12-05T03:23:59.033Z,965.23
2017-12-05T03:24:59.016Z,965.22
2017-12-05T03:25:59.002Z,965.2
2017-12-05T03:26:58.979Z,965.24
2017-12-05T03:27:58.963Z,965.27
2017-12-05T03:28:58.962Z,965.27
2017-12-05T03:29:58.928Z,965.23
2017-12-05T03:30:58.912Z,965.24
2017-12-05T03:31:58.893Z,965.21
2017-12-05T03:32:58.876Z,965.2
2017-12-05T03:33:58.860Z,965.26
2017-12-05T03:34:58.840Z,965.26
2017-12-05T03:35:58.824Z,965.21
2017-12-05T03:36:58.807Z,965.28
2017-12-05T03:37:58.804Z,965.32
2017-12-05T03:38:58.770Z,965.25
2017-12-05T03:39:58.753Z,965.29
2017-12-05T03:40:58.735Z,965.33
2017-12-05T03:41:58.726Z,965.33
2017-12-05T03:42:58.700Z,965.28
2017-12-05T03:43:58.684Z,965.3
2017-12-05T03:44:58.666Z,965.29
2017-12-05T03:45:58.648Z,965.29
2017-12-05T03:46:58.631Z,965.24
2017-12-05T03:47:58.613Z,965.27
2017-12-05T03:48:58.596Z,965.36
2017-12-05T03:49:58.578Z,965.32
2017-12-05T03:50:58.566Z,965.26
2017-12-05T03:51:58.543Z,965.38
2017-12-05T03:52:58.526Z,965.33
2017-12-05T03:53:58.508Z,965.35
2017-12-05T03:54:58.491Z,965.38
2017-12-05T03:55:58.474Z,965.36
2017-12-05T03:56:58.457Z,965.35
2017-12-05T03:57:58.438Z,965.37
2017-12-05T03:58:58.422Z,965.37
2017-12-05T03:59:58.425Z,965.37
2017-12-05T04:00:58.390Z,965.39
2017-12-05T04:01:58.369Z,965.35
2017-12-05T04:02:58.373Z,965.33
2017-12-05T04:03:58.334Z,965.35
2017-12-05T04:04:58.321Z,965.3
2017-12-05T04:05:58.300Z,965.35
2017-12-05T04:06:58.283Z,965.31
2017-12-05T04:07:58.281Z,965.33
2017-12-05T04:08:58.264Z,965.32
2017-12-05T04:09:58.232Z,965.36
2017-12-05T04:10:58.214Z,965.29
2017-12-05T04:11:58.196Z,965.28
2017-12-05T04:12:58.180Z,965.32
2017-12-05T04:13:58.162Z,965.32
2017-12-05T04:14:58.145Z,965.37
2017-12-05T04:15:58.126Z,965.29
2017-12-05T04:16:58.110Z,965.32
2017-12-05T04:17:58.091Z,965.28
2017-12-05T04:18:58.076Z,965.32
2017-12-05T04:19:58.058Z,965.31
2017-12-05T04:20:58.041Z,965.32
2017-12-05T04:21:58.022Z,965.3
2017-12-05T04:22:58.005Z,965.32
2017-12-05T04:23:57.988Z,965.32
2017-12-05T04:24:57.972Z,965.36
2017-12-05T04:25:57.953Z,965.33
2017-12-05T04:26:57.936Z,965.37
2017-12-05T04:27:57.918Z,965.36
2017-12-05T04:28:57.901Z,965.37
2017-12-05T04:29:57.885Z,965.34
2017-12-05T04:30:57.867Z,965.37
2017-12-05T04:31:57.849Z,965.34
2017-12-05T04:32:57.832Z,965.34
2017-12-05T04:33:57.814Z,965.32
2017-12-05T04:34:57.816Z,965.35
2017-12-05T04:35:57.780Z,965.37
2017-12-05T04:36:57.763Z,965.32
2017-12-05T04:37:57.746Z,965.32
2017-12-05T04:38:57.728Z,965.3
2017-12-05T04:39:57.708Z,965.29
2017-12-05T04:40:57.693Z,965.33
2017-12-05T04:41:57.675Z,965.31
2017-12-05T04:42:57.659Z,965.31
2017-12-05T04:43:57.643Z,965.34
2017-12-05T04:44:57.626Z,965.31
2017-12-05T04:45:57.607Z,965.28
2017-12-05T04:46:57.590Z,965.25
2017-12-05T04:47:57.572Z,965.29
2017-12-05T04:48:57.577Z,965.29
2017-12-05T04:49:57.540Z,965.26
2017-12-05T04:50:57.521Z,965.24
2017-12-05T04:51:57.503Z,965.28
2017-12-05T04:52:57.486Z,965.27
2017-12-05T04:53:57.469Z,965.31
2017-12-05T04:54:57.460Z,965.3
2017-12-05T04:55:57.435Z,965.35
2017-12-05T04:56:57.417Z,965.34
2017-12-05T04:57:57.400Z,965.33
2017-12-05T04:58:57.382Z,965.33
2017-12-05T04:59:57.365Z,965.35
2017-12-05T05:00:57.368Z,965.34
2017-12-05T05:01:57.329Z,965.29
2017-12-05T05:02:57.313Z,965.3
2017-12-05T05:03:57.296Z,965.35
2017-12-05T05:04:57.284Z,965.36
2017-12-05T05:05:57.261Z,965.35
2017-12-05T05:06:57.249Z,965.35
2017-12-05T05:07:57.228Z,965.36
2017-12-05T05:08:57.211Z,965.39
2017-12-05T05:09:57.191Z,965.4
2017-12-05T05:10:57.177Z,965.42
2017-12-05T05:11:57.162Z,965.41
2017-12-05T05:12:57.141Z,965.39
2017-12-05T05:13:57.125Z,965.35
2017-12-05T05:14:57.108Z,965.4
2017-12-05T05:15:57.090Z,965.37
2017-12-05T05:16:57.073Z,965.45
2017-12-05T05:17:57.056Z,965.37
2017-12-05T05:18:57.038Z,965.4
2017-12-05T05:19:57.021Z,965.41
2017-12-05T05:20:57.004Z,965.43
2017-12-05T05:21:56.988Z,965.39
2017-12-05T05:22:56.988Z,965.46
2017-12-05T05:23:56.953Z,965.4
2017-12-05T05:24:56.935Z,965.45
2017-12-05T05:25:56.918Z,965.45
2017-12-05T05:26:56.913Z,965.43
2017-12-05T05:27:56.883Z,965.4
2017-12-05T05:28:56.867Z,965.44
2017-12-05T05:29:56.850Z,965.41
2017-12-05T05:30:56.832Z,965.42
2017-12-05T05:31:56.814Z,965.4
2017-12-05T05:32:56.822Z,965.39
2017-12-05T05:33:56.831Z,965.36
2017-12-05T05:34:56.763Z,965.4
2017-12-05T05:35:56.746Z,965.44
2017-12-05T05:36:56.750Z,965.44
2017-12-05T05:37:56.712Z,965.43
2017-12-05T05:38:56.697Z,965.41
2017-12-05T05:39:56.677Z,965.43
2017-12-05T05:40:56.671Z,965.46
2017-12-05T05:41:56.644Z,965.4
2017-12-05T05:42:56.626Z,965.46
2017-12-05T05:43:56.610Z,965.49
2017-12-05T05:44:56.593Z,965.51
2017-12-05T05:45:56.576Z,965.45
2017-12-05T05:46:56.558Z,965.51
2017-12-05T05:47:56.541Z,965.52
2017-12-05T05:48:56.524Z,965.52
2017-12-05T05:49:56.510Z,965.53
2017-12-05T05:50:56.491Z,965.58
2017-12-05T05:51:56.474Z,965.54
2017-12-05T05:52:56.456Z,965.55
2017-12-05T05:53:56.443Z,965.59
2017-12-05T05:54:56.421Z,965.62
2017-12-05T05:55:56.404Z,965.56
2017-12-05T05:56:56.386Z,965.61
2017-12-05T05:57:56.376Z,965.62
2017-12-05T05:58:56.371Z,965.61
2017-12-05T05:59:56.336Z,965.57
2017-12-05T06:00:56.317Z,965.59
2017-12-05T06:01:56.301Z,965.64
2017-12-05T06:02:56.286Z,965.68
2017-12-05T06:03:56.266Z,965.72
2017-12-05T06:04:56.249Z,965.68
2017-12-05T06:05:56.233Z,965.77
2017-12-05T06:06:56.226Z,965.71
2017-12-05T06:07:56.200Z,965.74
2017-12-05T06:08:56.181Z,965.78
2017-12-05T06:09:56.164Z,965.79
2017-12-05T06:10:56.148Z,965.81
2017-12-05T06:11:56.130Z,965.8
2017-12-05T06:12:56.217Z,965.74
2017-12-05T06:13:56.094Z,965.81
2017-12-05T06:14:56.077Z,965.84
2017-12-05T06:15:56.061Z,965.83
2017-12-05T06:16:56.043Z,965.84
2017-12-05T06:17:56.027Z,965.86
2017-12-05T06:18:56.008Z,965.82
2017-12-05T06:19:55.991Z,965.8
2017-12-05T06:20:55.975Z,965.87
2017-12-05T06:21:55.958Z,965.93
2017-12-05T06:22:55.940Z,965.89
2017-12-05T06:23:55.923Z,965.93
2017-12-05T06:24:55.924Z,965.93
2017-12-05T06:25:55.888Z,965.92
2017-12-05T06:26:55.873Z,965.89
2017-12-05T06:27:55.855Z,965.86
2017-12-05T06:28:55.837Z,965.93
2017-12-05T06:29:55.823Z,965.9
2017-12-05T06:30:55.802Z,965.93
2017-12-05T06:31:55.786Z,965.94
2017-12-05T06:32:55.768Z,965.95
2017-12-05T06:33:55.750Z,966.02
2017-12-05T06:34:55.733Z,965.96
2017-12-05T06:35:55.716Z,966.03
2017-12-05T06:36:55.699Z,966.02
2017-12-05T06:37:55.681Z,966.03
2017-12-05T06:38:55.666Z,966.05
2017-12-05T06:39:55.647Z,966.07
2017-12-05T06:40:55.628Z,966.12
2017-12-05T06:41:55.612Z,966.06
2017-12-05T06:42:55.614Z,966.13
2017-12-05T06:43:55.578Z,966.13
2017-12-05T06:44:55.560Z,966.1
2017-12-05T06:45:55.542Z,966.07
2017-12-05T06:46:55.546Z,966.1
2017-12-05T06:47:55.509Z,966.11
2017-12-05T06:48:55.491Z,966.11
2017-12-05T06:49:55.474Z,966.09
2017-12-05T06:50:55.458Z,966.07
2017-12-05T06:51:55.439Z,966.17
2017-12-05T06:52:55.423Z,966.16
2017-12-05T06:53:55.405Z,966.16
2017-12-05T06:54:55.392Z,966.17
2017-12-05T06:55:55.370Z,966.19
2017-12-05T06:56:55.354Z,966.19
2017-12-05T06:57:55.335Z,966.15
2017-12-05T06:58:55.319Z,966.23
2017-12-05T06:59:55.302Z,966.22
2017-12-05T07:00:55.284Z,966.25
2017-12-05T07:01:55.268Z,966.29
2017-12-05T07:02:55.249Z,966.28
2017-12-05T07:03:55.232Z,966.25
2017-12-05T07:04:55.214Z,966.26
2017-12-05T07:05:55.198Z,966.29
2017-12-05T07:06:55.186Z,966.31
2017-12-05T07:07:55.163Z,966.31
2017-12-05T07:08:55.146Z,966.34
2017-12-05T07:09:55.131Z,966.37
2017-12-05T07:10:55.120Z,966.39
2017-12-05T07:11:55.094Z,966.33
2017-12-05T07:12:55.078Z,966.37
2017-12-05T07:13:55.059Z,966.41
2017-12-05T07:14:55.043Z,966.42
2017-12-05T07:15:55.025Z,966.43
2017-12-05T07:16:55.008Z,966.47
2017-12-05T07:17:55.018Z,966.49
2017-12-05T07:18:54.973Z,966.44
2017-12-05T07:19:54.957Z,966.47
2017-12-05T07:20:54.940Z,966.5
2017-12-05T07:21:54.928Z,966.54
2017-12-05T07:22:54.904Z,966.56
2017-12-05T07:23:54.890Z,966.57
2017-12-05T07:24:54.889Z,966.58
2017-12-05T07:25:54.853Z,966.56
2017-12-05T07:26:54.836Z,966.57
2017-12-05T07:27:54.819Z,966.6
2017-12-05T07:28:54.801Z,966.6
2017-12-05T07:29:54.784Z,966.59
2017-12-05T07:30:54.788Z,966.66
2017-12-05T07:31:54.750Z,966.67
2017-12-05T07:32:54.732Z,966.7
2017-12-05T07:33:54.715Z,966.6
2017-12-05T07:34:54.736Z,966.6
2017-12-05T07:35:54.678Z,966.64
2017-12-05T07:36:54.663Z,966.59
2017-12-05T07:37:54.646Z,966.64
2017-12-05T07:38:54.632Z,966.68
2017-12-05T07:39:54.611Z,966.65
2017-12-05T07:40:54.595Z,966.65
2017-12-05T07:41:54.579Z,966.67
2017-12-05T07:42:54.560Z,966.68
2017-12-05T07:43:54.550Z,966.7
2017-12-05T07:44:54.526Z,966.74
2017-12-05T07:45:54.509Z,966.71
2017-12-05T07:46:54.491Z,966.67
2017-12-05T07:47:54.491Z,966.79
2017-12-05T07:48:54.458Z,966.71
2017-12-05T07:49:54.440Z,966.73
2017-12-05T07:50:54.424Z,966.78
2017-12-05T07:51:54.406Z,966.83
2017-12-05T07:52:54.390Z,966.82
2017-12-05T07:53:54.371Z,966.78
2017-12-05T07:54:54.358Z,966.83
2017-12-05T07:55:54.340Z,966.83
2017-12-05T07:56:54.326Z,966.81
2017-12-05T07:57:54.303Z,966.85
2017-12-05T07:58:54.287Z,966.88
2017-12-05T07:59:54.305Z,966.91
2017-12-05T08:00:54.251Z,966.87
2017-12-05T08:01:54.302Z,966.9
2017-12-05T08:02:54.217Z,966.9
2017-12-05T08:03:54.201Z,966.92
2017-12-05T08:04:54.184Z,966.93
2017-12-05T08:05:54.165Z,966.92
2017-12-05T08:06:54.150Z,966.99
2017-12-05T08:07:54.134Z,966.96
2017-12-05T08:08:54.113Z,966.94
2017-12-05T08:09:54.097Z,966.98
2017-12-05T08:10:54.080Z,966.99
2017-12-05T08:11:54.063Z,966.98
2017-12-05T08:12:54.045Z,966.96
2017-12-05T08:13:54.028Z,967
2017-12-05T08:14:54.016Z,966.96
2017-12-05T08:15:53.994Z,966.96
2017-12-05T08:16:53.985Z,966.97
2017-12-05T08:17:53.961Z,967.02
2017-12-05T08:18:53.944Z,967.01
2017-12-05T08:19:53.926Z,967
2017-12-05T08:20:53.909Z,967.01
2017-12-05T08:21:53.894Z,967.04
2017-12-05T08:22:53.875Z,967.05
2017-12-05T08:23:53.880Z,967.06
2017-12-05T08:24:53.840Z,967.1
2017-12-05T08:25:53.824Z,967.09
2017-12-05T08:26:53.806Z,967.06
2017-12-05T08:27:53.795Z,967.07
2017-12-05T08:28:53.772Z,967.09
2017-12-05T08:29:53.755Z,967.12
2017-12-05T08:30:53.737Z,967.11
2017-12-05T08:31:53.724Z,967.09
2017-12-05T08:32:53.720Z,967.16
2017-12-05T08:33:53.688Z,967.13
2017-12-05T08:34:53.669Z,967.15
2017-12-05T08:35:53.652Z,967.06
2017-12-05T08:36:53.635Z,967.16
2017-12-05T08:37:53.617Z,967.09
2017-12-05T08:38:53.600Z,967.1
2017-12-05T08:39:53.584Z,967.11
2017-12-05T08:40:53.567Z,967.06
2017-12-05T08:41:53.549Z,967.13
2017-12-05T08:42:53.531Z,967.11
2017-12-05T08:43:53.519Z,967.17
2017-12-05T08:44:53.499Z,967.15
2017-12-05T08:45:53.481Z,967.14
2017-12-05T08:46:53.464Z,967.16
2017-12-05T08:47:53.447Z,967.12
2017-12-05T08:48:53.429Z,967.2
2017-12-05T08:49:53.424Z,967.17
2017-12-05T08:50:53.395Z,967.22
2017-12-05T08:51:53.382Z,967.21
2017-12-05T08:52:53.362Z,967.25
2017-12-05T08:53:53.349Z,967.21
2017-12-05T08:54:53.329Z,967.21
2017-12-05T08:55:53.343Z,967.21
2017-12-05T08:56:53.294Z,967.21
2017-12-05T08:57:53.276Z,967.23
2017-12-05T08:58:53.260Z,967.23
2017-12-05T08:59:53.242Z,967.25
2017-12-05T09:00:53.226Z,967.27
2017-12-05T09:01:53.209Z,967.24
2017-12-05T09:02:53.193Z,967.25
2017-12-05T09:03:53.194Z,967.23
2017-12-05T09:04:53.158Z,967.27
2017-12-05T09:05:53.141Z,967.22
2017-12-05T09:06:53.124Z,967.26
2017-12-05T09:07:53.106Z,967.25
2017-12-05T09:08:53.092Z,967.25
2017-12-05T09:09:53.074Z,967.29
2017-12-05T09:10:53.055Z,967.31
2017-12-05T09:11:53.047Z,967.29
2017-12-05T09:12:53.022Z,967.24
2017-12-05T09:13:53.004Z,967.33
2017-12-05T09:14:52.987Z,967.35
2017-12-05T09:15:52.972Z,967.33
2017-12-05T09:16:52.964Z,967.36
2017-12-05T09:17:52.939Z,967.32
2017-12-05T09:18:52.920Z,967.32
2017-12-05T09:19:52.903Z,967.35
2017-12-05T09:20:52.895Z,967.36
2017-12-05T09:21:52.869Z,967.38
2017-12-05T09:22:52.852Z,967.35
2017-12-05T09:23:52.835Z,967.41
2017-12-05T09:24:52.818Z,967.38
2017-12-05T09:25:52.811Z,967.35
2017-12-05T09:26:52.785Z,967.38
2017-12-05T09:27:52.769Z,967.36
2017-12-05T09:28:52.752Z,967.34
2017-12-05T09:29:52.734Z,967.37
2017-12-05T09:30:56.520Z,967.39
2017-12-05T09:31:52.700Z,967.41
2017-12-05T09:32:52.688Z,967.4
2017-12-05T09:33:52.666Z,967.42
2017-12-05T09:34:52.649Z,967.41
2017-12-05T09:35:52.632Z,967.4
2017-12-05T09:36:52.615Z,967.42
2017-12-05T09:37:52.598Z,967.43
2017-12-05T09:38:52.584Z,967.38
2017-12-05T09:39:52.564Z,967.4
2017-12-05T09:40:52.549Z,967.45
2017-12-05T09:41:52.535Z,967.46
2017-12-05T09:42:52.515Z,967.42
2017-12-05T09:43:52.499Z,967.49
2017-12-05T09:44:52.481Z,967.46
2017-12-05T09:45:52.464Z,967.43
2017-12-05T09:46:52.446Z,967.52
2017-12-05T09:47:52.430Z,967.54
2017-12-05T09:48:52.413Z,967.48
2017-12-05T09:49:52.397Z,967.46
2017-12-05T09:50:52.379Z,967.5
2017-12-05T09:51:52.420Z,967.44
2017-12-05T09:52:52.350Z,967.44
2017-12-05T09:53:52.336Z,967.43
2017-12-05T09:54:52.316Z,967.44
2017-12-05T09:55:52.296Z,967.45
2017-12-05T09:56:52.281Z,967.45
2017-12-05T09:57:52.263Z,967.45
2017-12-05T09:58:52.246Z,967.46
2017-12-05T09:59:52.243Z,967.42
2017-12-05T10:00:52.214Z,967.43
2017-12-05T10:01:52.220Z,967.46
2017-12-05T10:02:52.179Z,967.46
2017-12-05T10:03:52.163Z,967.49
2017-12-05T10:04:52.148Z,967.47
2017-12-05T10:05:52.149Z,967.49
2017-12-05T10:06:52.113Z,967.53
2017-12-05T10:07:52.094Z,967.47
2017-12-05T10:08:52.077Z,967.5
2017-12-05T10:09:52.062Z,967.51
2017-12-05T10:10:52.059Z,967.54
2017-12-05T10:11:52.029Z,967.47
2017-12-05T10:12:52.012Z,967.55
2017-12-05T10:13:51.996Z,967.54
2017-12-05T10:14:51.982Z,967.51
2017-12-05T10:15:51.963Z,967.56
2017-12-05T10:16:51.945Z,967.53
2017-12-05T10:17:51.930Z,967.51
2017-12-05T10:18:51.919Z,967.53
2017-12-05T10:19:51.900Z,967.52
2017-12-05T10:20:51.877Z,967.48
2017-12-05T10:21:51.862Z,967.53
2017-12-05T10:22:51.845Z,967.54
2017-12-05T10:23:51.828Z,967.52
2017-12-05T10:24:51.812Z,967.51
2017-12-05T10:25:51.795Z,967.48
2017-12-05T10:26:51.791Z,967.49
2017-12-05T10:27:51.763Z,967.46
2017-12-05T10:28:51.747Z,967.46
2017-12-05T10:29:51.730Z,967.46
2017-12-05T10:30:51.800Z,967.46
2017-12-05T10:31:51.747Z,967.42
2017-12-05T10:32:51.711Z,967.45
2017-12-05T10:33:51.695Z,967.44
2017-12-05T10:34:51.661Z,967.4
2017-12-05T10:35:51.630Z,967.37
2017-12-05T10:36:51.614Z,967.4
2017-12-05T10:37:51.597Z,967.38
2017-12-05T10:38:51.581Z,967.33
2017-12-05T10:39:51.564Z,967.33
2017-12-05T10:40:51.547Z,967.35
2017-12-05T10:41:51.530Z,967.34
2017-12-05T10:42:51.864Z,967.31
2017-12-05T10:43:51.513Z,967.36
2017-12-05T10:44:51.524Z,967.32
2017-12-05T10:45:51.476Z,967.36
2017-12-05T10:46:51.470Z,967.33
2017-12-05T10:47:51.442Z,967.37
2017-12-05T10:48:51.415Z,967.37
2017-12-05T10:49:51.399Z,967.37
2017-12-05T10:50:51.381Z,967.37
2017-12-05T10:51:51.385Z,967.38
2017-12-05T10:52:51.347Z,967.41
2017-12-05T10:53:51.331Z,967.4
2017-12-05T10:54:51.315Z,967.39
2017-12-05T10:55:51.299Z,967.4
2017-12-05T10:56:51.281Z,967.37
2017-12-05T10:57:51.266Z,967.36
2017-12-05T10:58:51.250Z,967.35
2017-12-05T10:59:51.232Z,967.28
2017-12-05T11:00:51.308Z,967.34
2017-12-05T11:01:51.199Z,967.38
2017-12-05T11:02:51.184Z,967.41
2017-12-05T11:03:51.166Z,967.39
2017-12-05T11:04:51.154Z,967.36
2017-12-05T11:05:51.134Z,967.42
2017-12-05T11:06:51.122Z,967.36
2017-12-05T11:07:51.100Z,967.33
2017-12-05T11:08:51.084Z,967.38
2017-12-05T11:09:51.068Z,967.38
2017-12-05T11:10:51.057Z,967.37
2017-12-05T11:11:51.034Z,967.33
2017-12-05T11:12:51.018Z,967.34
2017-12-05T11:13:51.002Z,967.29
2017-12-05T11:14:50.986Z,967.36
2017-12-05T11:15:50.968Z,967.36
2017-12-05T11:16:50.953Z,967.43
2017-12-05T11:17:50.936Z,967.47
2017-12-05T11:18:50.920Z,967.45
2017-12-05T11:19:50.903Z,967.39
2017-12-05T11:20:50.897Z,967.42
2017-12-05T11:21:50.870Z,967.41
2017-12-05T11:22:50.866Z,967.37
2017-12-05T11:23:50.838Z,967.45
2017-12-05T11:24:50.823Z,967.38
2017-12-05T11:25:50.952Z,967.46
2017-12-05T11:26:50.788Z,967.41
2017-12-05T11:27:50.772Z,967.44
2017-12-05T11:28:50.756Z,967.44
2017-12-05T11:29:50.740Z,967.44
2017-12-05T11:30:50.792Z,967.44
2017-12-05T11:31:50.707Z,967.43
2017-12-05T11:32:50.689Z,967.42
2017-12-05T11:33:50.674Z,967.5
2017-12-05T11:34:50.658Z,967.44
2017-12-05T11:35:50.642Z,967.43
2017-12-05T11:36:50.624Z,967.47
2017-12-05T11:37:50.609Z,967.45
2017-12-05T11:38:50.594Z,967.44
2017-12-05T11:39:50.577Z,967.39
2017-12-05T11:40:50.571Z,967.41
2017-12-05T11:41:50.543Z,967.41
2017-12-05T11:42:50.527Z,967.45
2017-12-05T11:43:50.511Z,967.36
2017-12-05T11:44:50.493Z,967.35
2017-12-05T11:45:50.484Z,967.36
2017-12-05T11:46:50.461Z,967.4
2017-12-05T11:47:50.444Z,967.38
2017-12-05T11:48:50.428Z,967.35
2017-12-05T11:49:50.412Z,967.33
2017-12-05T11:50:50.396Z,967.39
2017-12-05T11:51:50.381Z,967.33
2017-12-05T11:52:50.365Z,967.32
2017-12-05T11:53:50.347Z,967.31
2017-12-05T11:54:50.330Z,967.3
2017-12-05T11:55:50.314Z,967.28
2017-12-05T11:56:50.298Z,967.28
2017-12-05T11:57:50.282Z,967.28
2017-12-05T11:58:50.266Z,967.29
2017-12-05T11:59:50.249Z,967.27
2017-12-05T12:00:50.233Z,967.22
2017-12-05T12:01:50.217Z,967.21
2017-12-05T12:02:50.201Z,967.21
2017-12-05T12:03:50.186Z,967.27
2017-12-05T12:04:50.169Z,967.24
2017-12-05T12:05:50.152Z,967.23
2017-12-05T12:06:50.136Z,967.29
2017-12-05T12:07:50.121Z,967.25
2017-12-05T12:08:50.105Z,967.29
2017-12-05T12:09:50.087Z,967.29
2017-12-05T12:10:50.071Z,967.31
2017-12-05T12:11:50.056Z,967.25
2017-12-05T12:12:50.039Z,967.25
2017-12-05T12:13:50.023Z,967.23
2017-12-05T12:14:50.010Z,967.21
2017-12-05T12:15:49.996Z,967.25
2017-12-05T12:16:49.974Z,967.21
2017-12-05T12:17:49.958Z,967.2
2017-12-05T12:18:49.943Z,967.22
2017-12-05T12:19:49.927Z,967.29
2017-12-05T12:20:49.910Z,967.2
2017-12-05T12:21:49.894Z,967.21
2017-12-05T12:22:49.879Z,967.2
2017-12-05T12:23:49.863Z,967.22
2017-12-05T12:24:49.846Z,967.21
2017-12-05T12:25:49.830Z,967.19
2017-12-05T12:26:49.814Z,967.21
2017-12-05T12:27:49.798Z,967.2
2017-12-05T12:28:49.783Z,967.21
2017-12-05T12:29:49.767Z,967.23
2017-12-05T12:30:49.751Z,967.2